createdAt,value
2023-02-26T00:00:43.173Z,958.77
2023-02-26T00:01:33.170Z,958.80
2023-02-26T00:02:23.149Z,958.81
2023-02-26T00:03:13.184Z,958.78
2023-02-26T00:04:03.160Z,958.80
2023-02-26T00:04:53.137Z,958.76
2023-02-26T00:05:43.146Z,958.79
2023-02-26T00:06:33.152Z,958.79
2023-02-26T00:07:23.099Z,958.79
2023-02-26T00:08:13.096Z,958.80
2023-02-26T00:09:03.085Z,958.83
2023-02-26T00:09:53.066Z,958.77
2023-02-26T00:10:43.063Z,958.83
2023-02-26T00:11:33.053Z,958.85
2023-02-26T00:12:23.069Z,958.78
2023-02-26T00:13:13.039Z,958.85
2023-02-26T00:14:03.037Z,958.82
2023-02-26T00:14:53.025Z,958.84
2023-02-26T00:15:43.024Z,958.81
2023-02-26T00:16:33.106Z,958.88
2023-02-26T00:17:23.039Z,958.85
2023-02-26T00:18:12.982Z,958.87
2023-02-26T00:19:02.975Z,958.89
2023-02-26T00:19:52.982Z,958.87
2023-02-26T00:20:42.953Z,958.89
2023-02-26T00:21:32.987Z,958.86
2023-02-26T00:22:22.938Z,958.85
2023-02-26T00:23:12.906Z,958.87
2023-02-26T00:24:02.929Z,958.85
2023-02-26T00:24:52.937Z,958.86
2023-02-26T00:25:42.884Z,958.88
2023-02-26T00:26:32.900Z,958.90
2023-02-26T00:27:22.923Z,958.89
2023-02-26T00:28:12.880Z,958.88
2023-02-26T00:29:02.861Z,958.89
2023-02-26T00:29:52.869Z,958.92
2023-02-26T00:30:42.956Z,958.92
2023-02-26T00:31:32.885Z,958.88
2023-02-26T00:32:22.951Z,958.92
2023-02-26T00:33:12.833Z,958.86
2023-02-26T00:34:02.822Z,958.89
2023-02-26T00:34:52.798Z,958.86
2023-02-26T00:35:42.811Z,958.83
2023-02-26T00:36:32.860Z,958.83
2023-02-26T00:37:22.779Z,958.81
2023-02-26T00:38:12.764Z,958.87
2023-02-26T00:39:02.776Z,958.84
2023-02-26T00:39:52.760Z,958.84
2023-02-26T00:40:42.781Z,958.80
2023-02-26T00:41:32.811Z,958.81
2023-02-26T00:42:22.727Z,958.82
2023-02-26T00:43:12.709Z,958.82
2023-02-26T00:44:02.715Z,958.82
2023-02-26T00:44:52.720Z,958.83
2023-02-26T00:45:42.732Z,958.96
2023-02-26T00:46:32.779Z,958.87
2023-02-26T00:47:22.678Z,958.87
2023-02-26T00:48:12.675Z,958.86
2023-02-26T00:49:02.650Z,958.89
2023-02-26T00:49:52.639Z,958.88
2023-02-26T00:50:42.630Z,958.85
2023-02-26T00:51:32.638Z,958.86
2023-02-26T00:52:22.618Z,958.85
2023-02-26T00:53:12.597Z,958.83
2023-02-26T00:54:02.608Z,958.83
2023-02-26T00:54:52.599Z,958.84
2023-02-26T00:55:42.587Z,958.84
2023-02-26T00:56:32.564Z,958.85
2023-02-26T00:57:22.565Z,958.80
2023-02-26T00:58:12.561Z,958.83
2023-02-26T00:59:02.537Z,958.86
2023-02-26T00:59:52.548Z,958.87
2023-02-26T01:00:42.527Z,958.82
2023-02-26T01:01:32.541Z,958.83
2023-02-26T01:02:22.502Z,958.87
2023-02-26T01:03:12.501Z,958.81
2023-02-26T01:04:02.552Z,958.82
2023-02-26T01:04:52.475Z,958.86
2023-02-26T01:05:42.466Z,958.84
2023-02-26T01:06:32.474Z,958.85
2023-02-26T01:07:22.491Z,958.83
2023-02-26T01:08:12.442Z,958.83
2023-02-26T01:09:02.464Z,958.81
2023-02-26T01:09:52.430Z,958.82
2023-02-26T01:10:42.422Z,958.80
2023-02-26T01:11:32.414Z,958.78
2023-02-26T01:12:22.403Z,958.80
2023-02-26T01:13:12.395Z,958.80
2023-02-26T01:14:02.374Z,958.76
2023-02-26T01:14:52.406Z,958.77
2023-02-26T01:15:42.398Z,958.76
2023-02-26T01:16:32.381Z,958.77
2023-02-26T01:17:22.337Z,958.79
2023-02-26T01:18:12.340Z,958.78
2023-02-26T01:19:02.331Z,958.78
2023-02-26T01:19:52.330Z,958.79
2023-02-26T01:20:42.304Z,958.75
2023-02-26T01:21:32.328Z,958.74
2023-02-26T01:22:22.299Z,958.76
2023-02-26T01:23:12.283Z,958.78
2023-02-26T01:24:02.277Z,958.73
2023-02-26T01:24:52.277Z,958.76
2023-02-26T01:25:42.260Z,958.76
2023-02-26T01:26:32.243Z,958.77
2023-02-26T01:27:22.238Z,958.76
2023-02-26T01:28:12.234Z,958.75
2023-02-26T01:29:02.210Z,958.73
2023-02-26T01:29:52.197Z,958.74
2023-02-26T01:30:42.252Z,958.77
2023-02-26T01:31:32.325Z,958.74
2023-02-26T01:32:22.307Z,958.76
2023-02-26T01:33:12.170Z,958.75
2023-02-26T01:34:02.167Z,958.73
2023-02-26T01:34:52.155Z,958.75
2023-02-26T01:35:42.146Z,958.71
2023-02-26T01:36:32.135Z,958.72
2023-02-26T01:37:22.134Z,958.71
2023-02-26T01:38:12.147Z,958.70
2023-02-26T01:39:02.216Z,958.72
2023-02-26T01:39:52.112Z,958.69
2023-02-26T01:40:42.104Z,958.70
2023-02-26T01:41:32.097Z,958.69
2023-02-26T01:42:22.072Z,958.73
2023-02-26T01:43:12.068Z,958.74
2023-02-26T01:44:02.058Z,958.71
2023-02-26T01:44:52.063Z,958.71
2023-02-26T01:45:42.044Z,958.69
2023-02-26T01:46:32.500Z,958.69
2023-02-26T01:47:22.029Z,958.73
2023-02-26T01:48:12.019Z,958.73
2023-02-26T01:49:02.034Z,958.79
2023-02-26T01:49:52.004Z,958.74
2023-02-26T01:50:42.003Z,958.71
2023-02-26T01:51:31.986Z,958.77
2023-02-26T01:52:21.976Z,958.75
2023-02-26T01:53:11.944Z,958.73
2023-02-26T01:54:01.957Z,958.76
2023-02-26T01:54:51.950Z,958.78
2023-02-26T01:55:41.937Z,958.81
2023-02-26T01:56:31.918Z,958.79
2023-02-26T01:57:21.916Z,958.82
2023-02-26T01:58:11.920Z,958.80
2023-02-26T01:59:01.900Z,958.82
2023-02-26T01:59:51.910Z,958.88
2023-02-26T02:00:41.863Z,958.87
2023-02-26T02:01:31.853Z,958.88
2023-02-26T02:02:22.094Z,958.84
2023-02-26T02:03:11.987Z,958.84
2023-02-26T02:04:01.828Z,958.83
2023-02-26T02:04:51.826Z,958.85
2023-02-26T02:05:41.834Z,958.84
2023-02-26T02:06:31.828Z,958.86
2023-02-26T02:07:21.800Z,958.87
2023-02-26T02:08:11.794Z,958.88
2023-02-26T02:09:01.794Z,958.88
2023-02-26T02:09:51.793Z,958.85
2023-02-26T02:10:41.774Z,958.84
2023-02-26T02:11:31.755Z,958.80
2023-02-26T02:12:21.758Z,958.82
2023-02-26T02:13:11.755Z,958.85
2023-02-26T02:14:01.760Z,958.81
2023-02-26T02:14:51.751Z,958.80
2023-02-26T02:15:41.719Z,958.82
2023-02-26T02:16:31.795Z,958.81
2023-02-26T02:17:21.709Z,958.83
2023-02-26T02:18:11.694Z,958.85
2023-02-26T02:19:01.666Z,958.83
2023-02-26T02:19:51.774Z,958.81
2023-02-26T02:20:41.662Z,958.84
2023-02-26T02:21:31.654Z,958.84
2023-02-26T02:22:21.637Z,958.84
2023-02-26T02:23:11.711Z,958.87
2023-02-26T02:24:01.617Z,958.92
2023-02-26T02:24:51.631Z,958.90
2023-02-26T02:25:41.631Z,958.89
2023-02-26T02:26:31.597Z,958.90
2023-02-26T02:27:21.572Z,958.93
2023-02-26T02:28:11.585Z,958.93
2023-02-26T02:29:01.585Z,958.97
2023-02-26T02:29:51.556Z,958.97
2023-02-26T02:30:41.541Z,958.95
2023-02-26T02:31:31.651Z,958.98
2023-02-26T02:32:21.604Z,958.90
2023-02-26T02:33:11.519Z,958.91
2023-02-26T02:34:01.537Z,958.96
2023-02-26T02:34:51.508Z,958.95
2023-02-26T02:35:41.514Z,958.96
2023-02-26T02:36:31.497Z,958.98
2023-02-26T02:37:21.475Z,958.99
2023-02-26T02:38:11.479Z,958.97
2023-02-26T02:39:01.454Z,959.02
2023-02-26T02:39:51.471Z,958.98
2023-02-26T02:40:41.428Z,958.97
2023-02-26T02:41:31.435Z,959.00
2023-02-26T02:42:21.417Z,959.02
2023-02-26T02:43:11.416Z,959.05
2023-02-26T02:44:01.399Z,959.04
2023-02-26T02:44:51.391Z,959.04
2023-02-26T02:45:41.410Z,959.02
2023-02-26T02:46:31.561Z,959.09
2023-02-26T02:47:21.367Z,959.08
2023-02-26T02:48:11.373Z,959.09
2023-02-26T02:49:01.387Z,959.09
2023-02-26T02:49:51.346Z,959.10
2023-02-26T02:50:41.338Z,959.10
2023-02-26T02:51:31.325Z,959.04
2023-02-26T02:52:21.325Z,959.08
2023-02-26T02:53:11.306Z,959.09
2023-02-26T02:54:01.319Z,959.04
2023-02-26T02:54:51.303Z,959.04
2023-02-26T02:55:41.255Z,959.05
2023-02-26T02:56:31.273Z,959.05
2023-02-26T02:57:21.257Z,959.09
2023-02-26T02:58:11.267Z,959.07
2023-02-26T02:59:01.239Z,959.08
2023-02-26T02:59:51.242Z,959.06
2023-02-26T03:00:41.244Z,959.06
2023-02-26T03:01:31.203Z,959.08
2023-02-26T03:02:21.247Z,959.10
2023-02-26T03:03:11.198Z,959.08
2023-02-26T03:04:01.198Z,959.09
2023-02-26T03:04:51.189Z,959.08
2023-02-26T03:05:41.165Z,959.11
2023-02-26T03:06:31.201Z,959.11
2023-02-26T03:07:21.145Z,959.10
2023-02-26T03:08:11.156Z,959.15
2023-02-26T03:09:01.152Z,959.18
2023-02-26T03:09:51.154Z,959.17
2023-02-26T03:10:41.113Z,959.21
2023-02-26T03:11:31.129Z,959.22
2023-02-26T03:12:21.107Z,959.27
2023-02-26T03:13:11.106Z,959.23
2023-02-26T03:14:01.082Z,959.28
2023-02-26T03:14:51.090Z,959.24
2023-02-26T03:15:41.068Z,959.25
2023-02-26T03:16:31.146Z,959.22
2023-02-26T03:17:21.081Z,959.26
2023-02-26T03:18:11.033Z,959.32
2023-02-26T03:19:01.041Z,959.33
2023-02-26T03:19:51.025Z,959.32
2023-02-26T03:20:41.014Z,959.30
2023-02-26T03:21:31.036Z,959.31
2023-02-26T03:22:20.995Z,959.36
2023-02-26T03:23:11.015Z,959.36
2023-02-26T03:24:00.973Z,959.37
2023-02-26T03:24:50.977Z,959.40
2023-02-26T03:25:40.957Z,959.38
2023-02-26T03:26:30.954Z,959.37
2023-02-26T03:27:20.925Z,959.37
2023-02-26T03:28:10.953Z,959.40
2023-02-26T03:29:00.957Z,959.43
2023-02-26T03:29:50.914Z,959.44
2023-02-26T03:30:40.943Z,959.43
2023-02-26T03:31:30.914Z,959.43
2023-02-26T03:32:20.998Z,959.43
2023-02-26T03:33:10.887Z,959.41
2023-02-26T03:34:00.859Z,959.50
2023-02-26T03:34:50.880Z,959.47
2023-02-26T03:35:40.859Z,959.48
2023-02-26T03:36:30.856Z,959.50
2023-02-26T03:37:20.834Z,959.49
2023-02-26T03:38:10.830Z,959.53
2023-02-26T03:39:00.829Z,959.50
2023-02-26T03:39:50.823Z,959.47
2023-02-26T03:40:40.793Z,959.51
2023-02-26T03:41:30.792Z,959.53
2023-02-26T03:42:20.782Z,959.52
2023-02-26T03:43:10.792Z,959.53
2023-02-26T03:44:00.763Z,959.54
2023-02-26T03:44:50.765Z,959.53
2023-02-26T03:45:40.938Z,959.56
2023-02-26T03:46:30.723Z,959.50
2023-02-26T03:47:20.756Z,959.50
2023-02-26T03:48:10.723Z,959.50
2023-02-26T03:49:00.779Z,959.53
2023-02-26T03:49:50.706Z,959.53
2023-02-26T03:50:40.702Z,959.57
2023-02-26T03:51:30.706Z,959.60
2023-02-26T03:52:20.651Z,959.53
2023-02-26T03:53:10.683Z,959.53
2023-02-26T03:54:00.654Z,959.54
2023-02-26T03:54:50.652Z,959.56
2023-02-26T03:55:40.634Z,959.59
2023-02-26T03:56:30.624Z,959.52
2023-02-26T03:57:20.626Z,959.58
2023-02-26T03:58:10.611Z,959.60
2023-02-26T03:59:00.615Z,959.58
2023-02-26T03:59:50.599Z,959.62
2023-02-26T04:00:43.039Z,959.63
2023-02-26T04:01:30.559Z,959.57
2023-02-26T04:02:20.622Z,959.59
2023-02-26T04:03:10.565Z,959.60
2023-02-26T04:04:00.629Z,959.59
2023-02-26T04:04:50.538Z,959.59
2023-02-26T04:05:40.544Z,959.62
2023-02-26T04:06:30.518Z,959.63
2023-02-26T04:07:20.541Z,959.61
2023-02-26T04:08:10.500Z,959.60
2023-02-26T04:09:00.487Z,959.63
2023-02-26T04:09:50.480Z,959.64
2023-02-26T04:10:40.467Z,959.68
2023-02-26T04:11:30.469Z,959.68
2023-02-26T04:12:20.458Z,959.69
2023-02-26T04:13:10.490Z,959.63
2023-02-26T04:14:00.477Z,959.68
2023-02-26T04:14:50.432Z,959.68
2023-02-26T04:15:40.428Z,959.69
2023-02-26T04:16:30.511Z,959.71
2023-02-26T04:17:20.405Z,959.68
2023-02-26T04:18:10.398Z,959.70
2023-02-26T04:19:00.397Z,959.72
2023-02-26T04:19:50.386Z,959.73
2023-02-26T04:20:40.359Z,959.71
2023-02-26T04:21:30.347Z,959.70
2023-02-26T04:22:20.369Z,959.72
2023-02-26T04:23:10.369Z,959.70
2023-02-26T04:24:00.326Z,959.74
2023-02-26T04:24:50.330Z,959.72
2023-02-26T04:25:40.316Z,959.74
2023-02-26T04:26:30.296Z,959.72
2023-02-26T04:27:20.292Z,959.72
2023-02-26T04:28:10.295Z,959.74
2023-02-26T04:29:00.271Z,959.68
2023-02-26T04:29:50.276Z,959.70
2023-02-26T04:30:40.280Z,959.72
2023-02-26T04:31:30.349Z,959.69
2023-02-26T04:32:20.285Z,959.67
2023-02-26T04:33:10.246Z,959.69
2023-02-26T04:34:00.219Z,959.74
2023-02-26T04:34:50.208Z,959.71
2023-02-26T04:35:40.208Z,959.68
2023-02-26T04:36:30.193Z,959.64
2023-02-26T04:37:20.217Z,959.67
2023-02-26T04:38:10.157Z,959.64
2023-02-26T04:39:00.156Z,959.63
2023-02-26T04:39:50.148Z,959.72
2023-02-26T04:40:40.166Z,959.71
2023-02-26T04:41:30.118Z,959.69
2023-02-26T04:42:20.129Z,959.69
2023-02-26T04:43:10.132Z,959.71
2023-02-26T04:44:00.128Z,959.71
2023-02-26T04:44:50.108Z,959.68
2023-02-26T04:45:40.093Z,959.69
2023-02-26T04:46:30.181Z,959.71
2023-02-26T04:47:20.075Z,959.70
2023-02-26T04:48:10.075Z,959.70
2023-02-26T04:49:00.044Z,959.68
2023-02-26T04:49:50.044Z,959.70
2023-02-26T04:50:40.032Z,959.70
2023-02-26T04:51:30.019Z,959.73
2023-02-26T04:52:20.060Z,959.71
2023-02-26T04:53:10.022Z,959.74
2023-02-26T04:54:00.003Z,959.78
2023-02-26T04:54:49.999Z,959.73
2023-02-26T04:55:39.982Z,959.76
2023-02-26T04:56:29.949Z,959.79
2023-02-26T04:57:19.961Z,959.74
2023-02-26T04:58:09.950Z,959.73
2023-02-26T04:58:59.936Z,959.75
2023-02-26T04:59:49.926Z,959.76
2023-02-26T05:00:39.941Z,959.75
2023-02-26T05:01:29.951Z,959.74
2023-02-26T05:02:19.907Z,959.77
2023-02-26T05:03:09.922Z,959.79
2023-02-26T05:03:59.913Z,959.80
2023-02-26T05:04:50.009Z,959.80
2023-02-26T05:05:39.876Z,959.84
2023-02-26T05:06:29.865Z,959.78
2023-02-26T05:07:19.860Z,959.81
2023-02-26T05:08:09.846Z,959.81
2023-02-26T05:08:59.865Z,959.83
2023-02-26T05:09:49.838Z,959.80
2023-02-26T05:10:39.834Z,959.84
2023-02-26T05:11:29.829Z,959.86
2023-02-26T05:12:19.797Z,959.87
2023-02-26T05:13:09.790Z,959.91
2023-02-26T05:13:59.800Z,959.95
2023-02-26T05:14:49.783Z,959.94
2023-02-26T05:15:39.769Z,959.99
2023-02-26T05:16:30.044Z,959.95
2023-02-26T05:17:19.740Z,959.97
2023-02-26T05:18:09.731Z,960.00
2023-02-26T05:18:59.732Z,959.99
2023-02-26T05:19:49.721Z,960.03
2023-02-26T05:20:39.720Z,960.03
2023-02-26T05:21:29.711Z,959.99
2023-02-26T05:22:19.704Z,960.00
2023-02-26T05:23:09.677Z,960.01
2023-02-26T05:23:59.670Z,960.01
2023-02-26T05:24:49.663Z,960.01
2023-02-26T05:25:39.673Z,960.06
2023-02-26T05:26:29.659Z,960.04
2023-02-26T05:27:19.675Z,960.03
2023-02-26T05:28:09.630Z,960.06
2023-02-26T05:28:59.621Z,960.08
2023-02-26T05:29:49.614Z,960.07
2023-02-26T05:30:39.629Z,960.07
2023-02-26T05:31:29.609Z,960.11
2023-02-26T05:32:19.659Z,960.12
2023-02-26T05:33:09.583Z,960.12
2023-02-26T05:33:59.562Z,960.07
2023-02-26T05:34:49.567Z,960.12
2023-02-26T05:35:39.559Z,960.13
2023-02-26T05:36:29.552Z,960.13
2023-02-26T05:37:19.528Z,960.11
2023-02-26T05:38:09.504Z,960.12
2023-02-26T05:38:59.517Z,960.16
2023-02-26T05:39:49.493Z,960.15
2023-02-26T05:40:39.523Z,960.18
2023-02-26T05:41:29.477Z,960.19
2023-02-26T05:42:19.466Z,960.18
2023-02-26T05:43:09.488Z,960.23
2023-02-26T05:43:59.465Z,960.25
2023-02-26T05:44:49.458Z,960.22
2023-02-26T05:45:39.491Z,960.24
2023-02-26T05:46:29.674Z,960.26
2023-02-26T05:47:19.425Z,960.24
2023-02-26T05:48:09.436Z,960.23
2023-02-26T05:48:59.412Z,960.23
2023-02-26T05:49:49.373Z,960.24
2023-02-26T05:50:39.453Z,960.26
2023-02-26T05:51:29.383Z,960.29
2023-02-26T05:52:19.374Z,960.29
2023-02-26T05:53:09.360Z,960.32
2023-02-26T05:53:59.361Z,960.33
2023-02-26T05:54:49.432Z,960.34
2023-02-26T05:55:39.331Z,960.31
2023-02-26T05:56:29.362Z,960.34
2023-02-26T05:57:19.307Z,960.29
2023-02-26T05:58:09.313Z,960.28
2023-02-26T05:58:59.300Z,960.29
2023-02-26T05:59:49.303Z,960.28
2023-02-26T06:00:39.274Z,960.32
2023-02-26T06:01:29.283Z,960.27
2023-02-26T06:02:19.289Z,960.28
2023-02-26T06:03:09.294Z,960.28
2023-02-26T06:03:59.249Z,960.29
2023-02-26T06:04:49.236Z,960.29
2023-02-26T06:05:39.219Z,960.30
2023-02-26T06:06:29.203Z,960.33
2023-02-26T06:07:19.220Z,960.30
2023-02-26T06:08:09.211Z,960.33
2023-02-26T06:08:59.207Z,960.32
2023-02-26T06:09:49.195Z,960.35
2023-02-26T06:10:39.256Z,960.33
2023-02-26T06:11:29.165Z,960.35
2023-02-26T06:12:19.155Z,960.36
2023-02-26T06:13:09.170Z,960.36
2023-02-26T06:13:59.123Z,960.38
2023-02-26T06:14:49.115Z,960.45
2023-02-26T06:15:39.135Z,960.41
2023-02-26T06:16:29.321Z,960.42
2023-02-26T06:17:19.105Z,960.41
2023-02-26T06:18:09.087Z,960.44
2023-02-26T06:18:59.085Z,960.46
2023-02-26T06:19:49.086Z,960.44
2023-02-26T06:20:39.064Z,960.44
2023-02-26T06:21:29.041Z,960.45
2023-02-26T06:22:19.051Z,960.42
2023-02-26T06:23:09.046Z,960.46
2023-02-26T06:23:59.038Z,960.43
2023-02-26T06:24:49.052Z,960.43
2023-02-26T06:25:39.026Z,960.44
2023-02-26T06:26:29.422Z,960.48
2023-02-26T06:27:19.025Z,960.53
2023-02-26T06:28:08.989Z,960.51
2023-02-26T06:28:58.966Z,960.60
2023-02-26T06:29:48.991Z,960.57
2023-02-26T06:30:38.973Z,960.56
2023-02-26T06:31:29.032Z,960.56
2023-02-26T06:32:19.080Z,960.55
2023-02-26T06:33:08.934Z,960.50
2023-02-26T06:33:58.924Z,960.55
2023-02-26T06:34:48.904Z,960.57
2023-02-26T06:35:38.920Z,960.57
2023-02-26T06:36:28.884Z,960.58
2023-02-26T06:37:18.874Z,960.64
2023-02-26T06:38:08.872Z,960.63
2023-02-26T06:38:58.874Z,960.66
2023-02-26T06:39:48.868Z,960.61
2023-02-26T06:40:38.863Z,960.68
2023-02-26T06:41:28.844Z,960.63
2023-02-26T06:42:20.149Z,960.63
2023-02-26T06:43:08.832Z,960.67
2023-02-26T06:43:58.796Z,960.68
2023-02-26T06:44:48.797Z,960.65
2023-02-26T06:45:38.857Z,960.65
2023-02-26T06:46:28.797Z,960.62
2023-02-26T06:47:18.767Z,960.62
2023-02-26T06:48:08.773Z,960.62
2023-02-26T06:48:58.797Z,960.68
2023-02-26T06:49:48.752Z,960.62
2023-02-26T06:50:38.743Z,960.66
2023-02-26T06:51:28.725Z,960.69
2023-02-26T06:52:18.713Z,960.73
2023-02-26T06:53:08.688Z,960.72
2023-02-26T06:53:58.719Z,960.76
2023-02-26T06:54:48.723Z,960.74
2023-02-26T06:55:38.682Z,960.74
2023-02-26T06:56:29.096Z,960.79
2023-02-26T06:57:18.665Z,960.80
2023-02-26T06:58:08.658Z,960.78
2023-02-26T06:58:58.751Z,960.78
2023-02-26T06:59:48.771Z,960.82
2023-02-26T07:00:38.636Z,960.80
2023-02-26T07:01:28.634Z,960.92
2023-02-26T07:02:18.667Z,960.84
2023-02-26T07:03:08.599Z,960.95
2023-02-26T07:03:58.594Z,960.95
2023-02-26T07:04:48.615Z,960.90
2023-02-26T07:05:38.601Z,960.93
2023-02-26T07:06:28.564Z,960.94
2023-02-26T07:07:18.584Z,961.03
2023-02-26T07:08:08.550Z,961.00
2023-02-26T07:08:58.572Z,961.06
2023-02-26T07:09:48.554Z,961.00
2023-02-26T07:10:38.526Z,960.96
2023-02-26T07:11:28.516Z,961.07
2023-02-26T07:12:18.498Z,961.06
2023-02-26T07:13:08.485Z,961.11
2023-02-26T07:13:58.575Z,961.07
2023-02-26T07:14:48.479Z,961.12
2023-02-26T07:15:38.472Z,961.09
2023-02-26T07:16:28.900Z,961.09
2023-02-26T07:17:18.470Z,961.14
2023-02-26T07:18:08.421Z,961.15
2023-02-26T07:18:58.432Z,961.14
2023-02-26T07:19:48.426Z,961.17
2023-02-26T07:20:38.421Z,961.16
2023-02-26T07:21:28.429Z,961.16
2023-02-26T07:22:19.803Z,961.24
2023-02-26T07:23:08.409Z,961.23
2023-02-26T07:23:58.398Z,961.28
2023-02-26T07:24:48.361Z,961.24
2023-02-26T07:25:38.375Z,961.23
2023-02-26T07:26:28.655Z,961.31
2023-02-26T07:27:18.351Z,961.29
2023-02-26T07:28:08.352Z,961.31
2023-02-26T07:28:58.339Z,961.30
2023-02-26T07:29:48.316Z,961.29
2023-02-26T07:30:38.344Z,961.27
2023-02-26T07:31:28.383Z,961.29
2023-02-26T07:32:18.312Z,961.27
2023-02-26T07:33:08.307Z,961.29
2023-02-26T07:33:58.269Z,961.29
2023-02-26T07:34:48.257Z,961.32
2023-02-26T07:35:38.251Z,961.38
2023-02-26T07:36:28.437Z,961.30
2023-02-26T07:37:18.212Z,961.37
2023-02-26T07:38:08.263Z,961.34
2023-02-26T07:38:58.226Z,961.31
2023-02-26T07:39:48.218Z,961.30
2023-02-26T07:40:38.214Z,961.24
2023-02-26T07:41:28.195Z,961.33
2023-02-26T07:42:18.203Z,961.42
2023-02-26T07:43:08.153Z,961.43
2023-02-26T07:43:58.162Z,961.39
2023-02-26T07:44:48.168Z,961.36
2023-02-26T07:45:38.136Z,961.37
2023-02-26T07:46:28.451Z,961.38
2023-02-26T07:47:18.128Z,961.52
2023-02-26T07:48:08.101Z,961.42
2023-02-26T07:48:58.090Z,961.38
2023-02-26T07:49:48.122Z,961.33
2023-02-26T07:50:38.080Z,961.31
2023-02-26T07:51:28.296Z,961.41
2023-02-26T07:52:18.053Z,961.43
2023-02-26T07:53:08.070Z,961.37
2023-02-26T07:53:58.059Z,961.40
2023-02-26T07:54:48.050Z,961.46
2023-02-26T07:55:38.021Z,961.50
2023-02-26T07:56:28.248Z,961.47
2023-02-26T07:57:18.010Z,961.31
2023-02-26T07:58:08.024Z,961.30
2023-02-26T07:58:57.998Z,961.35
2023-02-26T07:59:48.008Z,961.45
2023-02-26T08:00:37.980Z,961.44
2023-02-26T08:01:28.005Z,961.32
2023-02-26T08:02:17.974Z,961.32
2023-02-26T08:03:07.988Z,961.39
2023-02-26T08:03:57.978Z,961.40
2023-02-26T08:04:47.948Z,961.29
2023-02-26T08:05:37.919Z,961.31
2023-02-26T08:06:28.288Z,961.33
2023-02-26T08:07:17.918Z,961.29
2023-02-26T08:08:07.898Z,961.36
2023-02-26T08:08:57.904Z,961.38
2023-02-26T08:09:47.898Z,961.32
2023-02-26T08:10:37.869Z,961.34
2023-02-26T08:11:27.868Z,961.51
2023-02-26T08:12:17.858Z,961.43
2023-02-26T08:13:07.853Z,961.42
2023-02-26T08:13:57.832Z,961.39
2023-02-26T08:14:47.824Z,961.36
2023-02-26T08:15:37.869Z,961.39
2023-02-26T08:16:28.306Z,961.37
2023-02-26T08:17:17.826Z,961.41
2023-02-26T08:18:07.760Z,961.41
2023-02-26T08:18:57.768Z,961.36
2023-02-26T08:19:47.782Z,961.34
2023-02-26T08:20:37.746Z,961.34
2023-02-26T08:21:27.757Z,961.36
2023-02-26T08:22:17.761Z,961.36
2023-02-26T08:23:07.740Z,961.33
2023-02-26T08:23:57.731Z,961.35
2023-02-26T08:24:47.731Z,961.32
2023-02-26T08:25:37.703Z,961.38
2023-02-26T08:26:28.127Z,961.36
2023-02-26T08:27:17.680Z,961.40
2023-02-26T08:28:07.680Z,961.35
2023-02-26T08:28:57.684Z,961.36
2023-02-26T08:29:47.654Z,961.34
2023-02-26T08:30:37.683Z,961.35
2023-02-26T08:31:27.719Z,961.39
2023-02-26T08:32:17.718Z,961.37
2023-02-26T08:33:07.635Z,961.40
2023-02-26T08:33:57.623Z,961.43
2023-02-26T08:34:47.629Z,961.40
2023-02-26T08:35:37.590Z,961.37
2023-02-26T08:36:28.018Z,961.33
2023-02-26T08:37:17.565Z,961.41
2023-02-26T08:38:07.567Z,961.40
2023-02-26T08:38:57.577Z,961.34
2023-02-26T08:39:47.559Z,961.39
2023-02-26T08:40:37.544Z,961.34
2023-02-26T08:41:27.805Z,961.38
2023-02-26T08:42:17.524Z,961.33
2023-02-26T08:43:07.553Z,961.36
2023-02-26T08:43:57.508Z,961.34
2023-02-26T08:44:47.550Z,961.32
2023-02-26T08:45:37.487Z,961.33
2023-02-26T08:46:28.017Z,961.38
2023-02-26T08:47:28.149Z,961.36
2023-02-26T08:48:10.761Z,961.40
2023-02-26T08:48:57.460Z,961.38
2023-02-26T08:49:47.433Z,961.39
2023-02-26T08:50:37.433Z,961.40
2023-02-26T08:51:27.706Z,961.42
2023-02-26T08:52:17.419Z,961.42
2023-02-26T08:53:07.423Z,961.39
2023-02-26T08:53:57.438Z,961.36
2023-02-26T08:54:47.395Z,961.34
2023-02-26T08:55:37.383Z,961.39
2023-02-26T08:56:27.764Z,961.30
2023-02-26T08:57:17.364Z,961.30
2023-02-26T08:58:07.355Z,961.33
2023-02-26T08:58:57.356Z,961.36
2023-02-26T08:59:47.360Z,961.39
2023-02-26T09:00:37.367Z,961.36
2023-02-26T09:01:27.673Z,961.35
2023-02-26T09:02:17.305Z,961.34
2023-02-26T09:03:07.445Z,961.39
2023-02-26T09:03:57.293Z,961.41
2023-02-26T09:04:47.324Z,961.42
2023-02-26T09:05:37.293Z,961.42
2023-02-26T09:06:27.807Z,961.42
2023-02-26T09:07:17.277Z,961.43
2023-02-26T09:08:07.273Z,961.42
2023-02-26T09:08:57.234Z,961.49
2023-02-26T09:09:47.245Z,961.46
2023-02-26T09:10:37.232Z,961.50
2023-02-26T09:11:27.535Z,961.53
2023-02-26T09:12:17.221Z,961.49
2023-02-26T09:13:07.188Z,961.45
2023-02-26T09:13:57.205Z,961.53
2023-02-26T09:14:47.197Z,961.59
2023-02-26T09:15:37.170Z,961.62
2023-02-26T09:16:27.561Z,961.65
2023-02-26T09:17:17.159Z,961.63
2023-02-26T09:18:07.145Z,961.59
2023-02-26T09:18:57.176Z,961.62
2023-02-26T09:19:47.135Z,961.63
2023-02-26T09:20:37.110Z,961.70
2023-02-26T09:21:27.124Z,961.67
2023-02-26T09:22:17.100Z,961.66
2023-02-26T09:23:07.095Z,961.68
2023-02-26T09:23:57.068Z,961.69
2023-02-26T09:24:47.151Z,961.67
2023-02-26T09:25:37.061Z,961.64
2023-02-26T09:26:27.466Z,961.67
2023-02-26T09:27:17.050Z,961.64
2023-02-26T09:28:07.078Z,961.58
2023-02-26T09:28:57.030Z,961.64
2023-02-26T09:29:47.007Z,961.59
2023-02-26T09:30:37.019Z,961.59
2023-02-26T09:31:27.103Z,961.63
2023-02-26T09:32:17.158Z,961.53
2023-02-26T09:33:06.966Z,961.50
2023-02-26T09:33:56.968Z,961.58
2023-02-26T09:34:46.969Z,961.52
2023-02-26T09:35:36.953Z,961.60
2023-02-26T09:36:27.443Z,961.60
2023-02-26T09:37:16.918Z,961.57
2023-02-26T09:38:06.932Z,961.56
2023-02-26T09:38:56.916Z,961.58
2023-02-26T09:39:46.921Z,961.55
2023-02-26T09:40:36.906Z,961.57
2023-02-26T09:41:26.887Z,961.66
2023-02-26T09:42:16.880Z,961.55
2023-02-26T09:43:06.877Z,961.64
2023-02-26T09:43:56.868Z,961.53
2023-02-26T09:44:46.848Z,961.63
2023-02-26T09:45:36.869Z,961.62
2023-02-26T09:46:27.282Z,961.63
2023-02-26T09:47:16.820Z,961.62
2023-02-26T09:48:06.812Z,961.60
2023-02-26T09:48:56.813Z,961.61
2023-02-26T09:49:46.816Z,961.66
2023-02-26T09:50:36.775Z,961.67
2023-02-26T09:51:26.793Z,961.75
2023-02-26T09:52:16.786Z,961.77
2023-02-26T09:53:06.767Z,961.67
2023-02-26T09:53:56.757Z,961.61
2023-02-26T09:54:46.754Z,961.61
2023-02-26T09:55:36.743Z,961.59
2023-02-26T09:56:27.103Z,961.64
2023-02-26T09:57:16.712Z,961.65
2023-02-26T09:58:06.727Z,961.65
2023-02-26T09:58:56.696Z,961.63
2023-02-26T09:59:46.678Z,961.62
2023-02-26T10:00:36.730Z,961.59
2023-02-26T10:01:26.745Z,961.58
2023-02-26T10:02:16.672Z,961.59
2023-02-26T10:03:06.675Z,961.64
2023-02-26T10:03:56.689Z,961.67
2023-02-26T10:04:46.651Z,961.68
2023-02-26T10:05:36.618Z,961.79
2023-02-26T10:06:26.962Z,961.58
2023-02-26T10:07:16.614Z,961.50
2023-02-26T10:08:06.608Z,961.56
2023-02-26T10:08:56.617Z,961.66
2023-02-26T10:09:46.605Z,961.59
2023-02-26T10:10:36.617Z,961.66
2023-02-26T10:11:26.567Z,961.69
2023-02-26T10:12:16.566Z,961.74
2023-02-26T10:13:06.557Z,961.76
2023-02-26T10:13:58.289Z,961.87
2023-02-26T10:14:46.544Z,961.79
2023-02-26T10:15:36.536Z,961.87
2023-02-26T10:16:26.942Z,961.88
2023-02-26T10:17:16.504Z,961.89
2023-02-26T10:18:06.524Z,961.97
2023-02-26T10:18:56.493Z,961.97
2023-02-26T10:19:46.475Z,961.96
2023-02-26T10:20:37.467Z,962.07
2023-02-26T10:21:26.515Z,961.99
2023-02-26T10:22:16.478Z,962.00
2023-02-26T10:23:06.476Z,961.99
2023-02-26T10:23:56.477Z,962.02